createdAt,value
2017-10-26T00:00:24.437Z,89.40
2017-10-26T00:02:52.783Z,89.50
2017-10-26T00:05:22.250Z,89.60
2017-10-26T00:07:51.430Z,89.70
2017-10-26T00:10:20.327Z,89.70
2017-10-26T00:12:48.650Z,90.00
2017-10-26T00:15:17.023Z,90.00
2017-10-26T00:17:46.070Z,90.00
2017-10-26T00:20:14.430Z,90.00
2017-10-26T00:22:42.735Z,89.90
2017-10-26T00:25:11.066Z,90.00
2017-10-26T00:27:39.380Z,90.10
2017-10-26T00:30:07.970Z,90.30
2017-10-26T00:32:36.332Z,90.70
2017-10-26T00:35:03.927Z,90.30
2017-10-26T00:37:32.252Z,90.40
2017-10-26T00:40:00.663Z,90.50
2017-10-26T00:42:28.990Z,90.50
2017-10-26T00:44:57.344Z,90.40
2017-10-26T00:47:25.675Z,90.40
2017-10-26T00:49:54.963Z,90.30
2017-10-26T00:52:23.287Z,90.30
2017-10-26T00:54:52.275Z,90.20
2017-10-26T00:57:22.332Z,90.20
2017-10-26T00:59:51.501Z,90.30
2017-10-26T01:02:19.833Z,90.30
2017-10-26T01:04:48.202Z,90.40
2017-10-26T01:07:16.516Z,90.40
2017-10-26T01:09:45.928Z,90.50
2017-10-26T01:12:14.234Z,90.60
2017-10-26T01:14:42.567Z,90.50
2017-10-26T01:17:10.867Z,90.60
2017-10-26T01:19:40.267Z,90.60
2017-10-26T01:22:08.583Z,90.70
2017-10-26T01:24:36.935Z,90.60
2017-10-26T01:27:05.247Z,90.60
2017-10-26T01:29:33.567Z,90.60
2017-10-26T01:32:01.895Z,90.60
2017-10-26T01:34:30.198Z,90.70
2017-10-26T01:36:58.537Z,90.80
2017-10-26T01:39:26.867Z,90.80
2017-10-26T01:41:55.199Z,90.80
2017-10-26T01:44:23.510Z,90.80
2017-10-26T01:46:51.859Z,90.70
2017-10-26T01:49:20.190Z,90.80
2017-10-26T01:51:48.500Z,90.80
2017-10-26T01:54:16.827Z,90.80
2017-10-26T01:56:44.372Z,90.80
2017-10-26T01:59:12.783Z,90.80
2017-10-26T02:01:41.099Z,90.70
2017-10-26T02:04:09.430Z,91.10
2017-10-26T02:06:38.882Z,90.70
2017-10-26T02:09:08.574Z,90.70
2017-10-26T02:11:36.877Z,90.70
2017-10-26T02:14:05.186Z,90.70
2017-10-26T02:16:33.512Z,90.70
2017-10-26T02:19:01.835Z,90.70
2017-10-26T02:21:30.179Z,90.70
2017-10-26T02:23:58.502Z,90.60
2017-10-26T02:26:26.835Z,90.70
2017-10-26T02:29:16.824Z,90.70
2017-10-26T02:31:45.152Z,90.70
2017-10-26T02:34:13.460Z,90.80
2017-10-26T02:36:41.791Z,90.90
2017-10-26T02:39:10.107Z,90.90
2017-10-26T02:41:38.458Z,90.80
2017-10-26T02:44:06.794Z,91.10
2017-10-26T02:46:35.108Z,90.80
2017-10-26T02:49:03.434Z,90.70
2017-10-26T02:51:31.755Z,90.70
2017-10-26T02:54:00.091Z,90.80
2017-10-26T02:56:28.406Z,90.80
2017-10-26T02:58:56.740Z,90.80
2017-10-26T03:01:25.049Z,90.80
2017-10-26T03:03:53.371Z,90.70
2017-10-26T03:06:22.615Z,90.70
2017-10-26T03:08:52.379Z,90.70
2017-10-26T03:11:21.309Z,90.70
2017-10-26T03:13:49.615Z,90.80
2017-10-26T03:16:17.188Z,90.80
2017-10-26T03:18:45.494Z,90.80
2017-10-26T03:21:13.819Z,90.80
2017-10-26T03:23:42.131Z,90.80
2017-10-26T03:26:09.701Z,90.80
2017-10-26T03:28:38.018Z,90.70
2017-10-26T03:31:06.408Z,90.70
2017-10-26T03:33:34.751Z,90.80
2017-10-26T03:36:03.090Z,90.80
2017-10-26T03:38:31.401Z,90.70
2017-10-26T03:40:59.699Z,90.70
2017-10-26T03:43:28.020Z,90.70
2017-10-26T03:45:56.335Z,90.70
2017-10-26T03:48:24.690Z,91.20
2017-10-26T03:50:52.995Z,90.80
2017-10-26T03:53:22.146Z,90.80
2017-10-26T03:55:50.451Z,90.80
2017-10-26T03:58:18.815Z,90.70
2017-10-26T04:00:46.360Z,90.70
2017-10-26T04:03:14.727Z,90.70
2017-10-26T04:05:43.036Z,90.60
2017-10-26T04:08:11.340Z,90.60
2017-10-26T04:10:39.668Z,91.00
2017-10-26T04:13:07.985Z,90.60
2017-10-26T04:15:36.348Z,90.60
2017-10-26T04:18:04.685Z,90.60
2017-10-26T04:20:33.011Z,90.60
2017-10-26T04:23:01.320Z,90.60
2017-10-26T04:25:28.894Z,90.60
2017-10-26T04:27:57.198Z,90.70
2017-10-26T04:30:25.511Z,90.60
2017-10-26T04:32:53.847Z,90.60
2017-10-26T04:35:23.459Z,90.60
2017-10-26T04:37:51.800Z,90.70
2017-10-26T04:40:20.110Z,90.60
2017-10-26T04:42:48.450Z,90.60
2017-10-26T04:45:16.775Z,90.60
2017-10-26T04:47:45.156Z,90.60
2017-10-26T04:50:13.467Z,90.70
2017-10-26T04:52:41.778Z,90.70
2017-10-26T04:55:10.099Z,90.70
2017-10-26T04:57:38.403Z,90.60
2017-10-26T05:00:07.744Z,90.70
2017-10-26T05:02:36.651Z,90.80
2017-10-26T05:05:05.003Z,90.80
2017-10-26T05:07:33.328Z,91.20
2017-10-26T05:10:01.675Z,90.80
2017-10-26T05:12:29.983Z,90.80
2017-10-26T05:14:58.286Z,90.70
2017-10-26T05:17:26.618Z,90.70
2017-10-26T05:19:54.935Z,90.60
2017-10-26T05:22:23.259Z,90.60
2017-10-26T05:24:52.488Z,90.60
2017-10-26T05:27:20.831Z,90.60
2017-10-26T05:29:49.157Z,90.60
2017-10-26T05:32:17.471Z,90.60
2017-10-26T05:34:45.803Z,90.60
2017-10-26T05:37:14.114Z,90.60
2017-10-26T05:39:42.444Z,90.60
2017-10-26T05:42:10.759Z,90.60
2017-10-26T05:44:39.116Z,90.60
2017-10-26T05:47:08.379Z,90.50
2017-10-26T05:49:37.662Z,90.50
2017-10-26T05:52:06.478Z,90.50
2017-10-26T05:54:34.827Z,90.50
2017-10-26T05:57:03.153Z,90.50
2017-10-26T05:59:32.505Z,90.50
2017-10-26T06:02:00.833Z,90.50
2017-10-26T06:04:29.146Z,90.50
2017-10-26T06:06:57.487Z,90.50
2017-10-26T06:09:25.799Z,90.60
2017-10-26T06:11:54.102Z,90.40
2017-10-26T06:14:23.554Z,90.40
2017-10-26T06:16:52.774Z,90.40
2017-10-26T06:19:21.757Z,90.40
2017-10-26T06:21:50.085Z,90.40
2017-10-26T06:24:18.483Z,90.40
2017-10-26T06:26:46.811Z,90.40
2017-10-26T06:29:15.206Z,90.40
2017-10-26T06:31:43.550Z,90.40
2017-10-26T06:34:11.978Z,90.40
2017-10-26T06:36:40.303Z,90.40
2017-10-26T06:39:08.607Z,90.40
2017-10-26T06:41:36.938Z,90.30
2017-10-26T06:44:05.264Z,90.30
2017-10-26T06:46:33.607Z,90.30
2017-10-26T06:49:01.910Z,90.30
2017-10-26T06:51:30.241Z,90.30
2017-10-26T06:53:58.559Z,90.30
2017-10-26T06:56:26.887Z,90.20
2017-10-26T06:58:55.199Z,90.20
2017-10-26T07:01:23.531Z,90.20
2017-10-26T07:03:53.094Z,90.10
2017-10-26T07:06:22.434Z,90.00
2017-10-26T07:08:50.748Z,89.80
2017-10-26T07:11:19.079Z,89.60
2017-10-26T07:13:47.415Z,89.30
2017-10-26T07:16:15.750Z,89.20
2017-10-26T07:18:44.077Z,89.10
2017-10-26T07:21:12.391Z,89.00
2017-10-26T07:23:40.735Z,89.00
2017-10-26T07:26:09.058Z,88.80
2017-10-26T07:28:38.683Z,88.70
2017-10-26T07:31:06.998Z,88.40
2017-10-26T07:33:34.563Z,88.40
2017-10-26T07:36:02.870Z,87.80
2017-10-26T07:38:31.224Z,87.40
2017-10-26T07:40:59.531Z,87.20
2017-10-26T07:43:27.860Z,86.80
2017-10-26T07:45:56.166Z,86.40
2017-10-26T07:48:24.487Z,86.00
2017-10-26T07:50:52.807Z,85.70
2017-10-26T07:53:21.890Z,85.50
2017-10-26T07:55:50.197Z,85.40
2017-10-26T07:58:18.531Z,85.40
2017-10-26T08:00:46.851Z,85.20
2017-10-26T08:03:15.214Z,84.80
2017-10-26T08:05:42.756Z,84.80
2017-10-26T08:08:11.062Z,84.00
2017-10-26T08:10:39.387Z,84.10
2017-10-26T08:13:09.151Z,83.90
2017-10-26T08:15:37.992Z,83.90
2017-10-26T08:18:07.339Z,84.00
2017-10-26T08:20:36.378Z,84.00
2017-10-26T08:23:04.682Z,83.30
2017-10-26T08:25:33.005Z,83.10
2017-10-26T08:28:01.307Z,82.90
2017-10-26T08:30:29.667Z,82.30
2017-10-26T08:32:57.970Z,82.00
2017-10-26T08:35:26.306Z,81.60
2017-10-26T08:37:54.626Z,81.10
2017-10-26T08:40:22.951Z,80.60
2017-10-26T08:42:52.443Z,80.10
2017-10-26T08:45:21.902Z,79.40
2017-10-26T08:47:50.222Z,78.90
2017-10-26T08:50:18.578Z,78.30
2017-10-26T08:52:46.883Z,77.60
2017-10-26T08:55:15.219Z,77.30
2017-10-26T08:57:43.535Z,77.10
2017-10-26T09:00:11.882Z,77.20
2017-10-26T09:02:40.184Z,77.10
2017-10-26T09:05:08.505Z,76.90
2017-10-26T09:07:36.842Z,76.50
2017-10-26T09:10:05.142Z,76.40
2017-10-26T09:12:33.475Z,76.30
2017-10-26T09:15:01.783Z,76.70
2017-10-26T09:17:30.115Z,77.10
2017-10-26T09:19:58.422Z,77.20
2017-10-26T09:22:26.786Z,77.20
2017-10-26T09:24:55.097Z,77.00
2017-10-26T09:27:23.423Z,77.10
2017-10-26T09:29:52.170Z,77.70
2017-10-26T09:32:21.307Z,76.00
2017-10-26T09:34:49.950Z,75.80
2017-10-26T09:37:19.354Z,75.30
2017-10-26T09:39:48.627Z,75.10
2017-10-26T09:42:16.957Z,75.40
2017-10-26T09:44:45.257Z,75.50
2017-10-26T09:47:13.582Z,75.70
2017-10-26T09:49:41.894Z,75.20
2017-10-26T09:52:10.220Z,75.10
2017-10-26T09:54:38.534Z,74.70
2017-10-26T09:57:06.893Z,73.70
2017-10-26T09:59:36.282Z,73.30
2017-10-26T10:02:04.633Z,72.80
2017-10-26T10:04:32.958Z,72.20
2017-10-26T10:07:01.262Z,72.40
2017-10-26T10:09:30.518Z,72.30
2017-10-26T10:11:58.823Z,71.90
2017-10-26T10:14:27.193Z,71.60
2017-10-26T10:16:55.503Z,72.20
2017-10-26T10:19:23.831Z,72.70
2017-10-26T10:21:53.098Z,73.00
2017-10-26T10:24:22.423Z,72.80
2017-10-26T10:26:50.724Z,72.30
2017-10-26T10:29:19.058Z,72.40
2017-10-26T10:31:47.359Z,72.70
2017-10-26T10:34:15.690Z,72.60
2017-10-26T10:36:43.987Z,72.60
2017-10-26T10:39:12.320Z,72.60
2017-10-26T10:41:40.627Z,72.30
2017-10-26T10:44:08.954Z,72.80
2017-10-26T10:46:37.250Z,71.70
2017-10-26T10:49:05.571Z,71.50
2017-10-26T10:51:33.875Z,71.60
2017-10-26T10:54:02.229Z,72.70
2017-10-26T10:56:30.529Z,71.70
2017-10-26T10:59:04.518Z,71.60
2017-10-26T11:01:32.853Z,71.90
2017-10-26T11:04:01.174Z,72.10
2017-10-26T11:06:29.506Z,72.30
2017-10-26T11:08:57.809Z,72.40
2017-10-26T11:11:26.143Z,72.20
2017-10-26T11:13:54.443Z,72.50
2017-10-26T11:16:22.767Z,72.60
2017-10-26T11:18:52.210Z,73.20
2017-10-26T11:21:21.246Z,72.30
2017-10-26T11:23:51.196Z,72.00
2017-10-26T11:26:22.038Z,72.40
2017-10-26T11:28:51.172Z,73.10
2017-10-26T11:31:21.154Z,73.50
2017-10-26T11:33:50.686Z,72.80
2017-10-26T11:36:19.010Z,72.40
2017-10-26T11:38:47.318Z,71.90
2017-10-26T11:41:15.639Z,71.60
2017-10-26T11:43:43.942Z,71.40
2017-10-26T11:46:12.263Z,71.80
2017-10-26T11:48:40.564Z,72.00
2017-10-26T11:51:08.903Z,72.40
2017-10-26T11:53:37.473Z,71.80
2017-10-26T11:56:05.811Z,72.30
2017-10-26T11:58:34.128Z,72.80
2017-10-26T12:01:02.437Z,73.30
2017-10-26T12:03:30.759Z,73.80
2017-10-26T12:05:59.060Z,73.90
2017-10-26T12:08:27.400Z,74.00
2017-10-26T12:10:55.707Z,74.10
2017-10-26T12:13:24.026Z,74.30
2017-10-26T12:15:53.492Z,74.50
2017-10-26T12:18:22.351Z,74.80
2017-10-26T12:20:51.765Z,74.90
2017-10-26T12:23:20.106Z,74.90
2017-10-26T12:25:48.446Z,75.00
2017-10-26T12:28:16.783Z,75.10
2017-10-26T12:30:45.095Z,75.10
2017-10-26T12:33:13.422Z,74.60
2017-10-26T12:35:41.750Z,75.00
2017-10-26T12:38:10.095Z,74.90
2017-10-26T12:40:38.412Z,74.80
2017-10-26T12:43:06.754Z,74.80
2017-10-26T12:45:35.067Z,74.70
2017-10-26T12:48:03.410Z,74.60
2017-10-26T12:50:31.712Z,74.60
2017-10-26T12:53:00.016Z,74.70
2017-10-26T12:55:28.360Z,74.70
2017-10-26T12:57:56.662Z,74.60
2017-10-26T13:00:25.030Z,74.60
2017-10-26T13:02:53.335Z,74.70
2017-10-26T13:05:21.744Z,74.50
2017-10-26T13:07:50.184Z,74.30
2017-10-26T13:10:18.526Z,74.30
2017-10-26T13:12:46.855Z,74.20
2017-10-26T13:15:15.198Z,74.30
2017-10-26T13:17:43.557Z,74.10
2017-10-26T13:20:11.877Z,74.30
2017-10-26T13:22:39.413Z,74.20
2017-10-26T13:25:07.725Z,74.30
2017-10-26T13:27:36.036Z,74.30
2017-10-26T13:30:04.359Z,74.60
2017-10-26T13:32:32.666Z,74.60
2017-10-26T13:35:01.007Z,74.50
2017-10-26T13:37:28.546Z,74.50
2017-10-26T13:39:56.898Z,74.70
2017-10-26T13:42:25.198Z,74.80
2017-10-26T13:44:53.506Z,74.80
2017-10-26T13:47:22.822Z,75.00
2017-10-26T13:49:53.157Z,75.30
2017-10-26T13:52:22.455Z,75.60
2017-10-26T13:54:50.761Z,75.80
2017-10-26T13:57:19.079Z,76.30
2017-10-26T13:59:47.386Z,76.60
2017-10-26T14:02:15.743Z,76.80
2017-10-26T14:04:44.075Z,76.90
2017-10-26T14:07:12.394Z,76.70
2017-10-26T14:09:41.780Z,76.90
2017-10-26T14:12:09.335Z,76.90
2017-10-26T14:14:37.634Z,76.80
2017-10-26T14:17:05.192Z,77.50
2017-10-26T14:19:34.587Z,76.70
2017-10-26T14:22:02.911Z,77.00
2017-10-26T14:24:31.215Z,76.80
2017-10-26T14:26:59.538Z,77.80
2017-10-26T14:29:27.889Z,77.00
2017-10-26T14:31:56.293Z,76.90
2017-10-26T14:34:24.602Z,76.70
2017-10-26T14:36:52.958Z,77.00
2017-10-26T14:39:22.314Z,76.90
2017-10-26T14:41:50.655Z,77.10
2017-10-26T14:44:18.239Z,77.10
2017-10-26T14:46:46.535Z,77.10
2017-10-26T14:49:14.866Z,78.00
2017-10-26T14:51:43.200Z,77.10
2017-10-26T14:54:11.867Z,76.90
2017-10-26T14:56:40.171Z,76.80
2017-10-26T14:59:08.494Z,76.70
2017-10-26T15:01:36.798Z,76.80
2017-10-26T15:04:05.127Z,77.00
2017-10-26T15:06:33.431Z,76.90
2017-10-26T15:09:01.767Z,77.00
2017-10-26T15:11:30.068Z,77.00
2017-10-26T15:13:58.398Z,76.90
2017-10-26T15:16:26.698Z,76.80
2017-10-26T15:18:55.038Z,76.90
2017-10-26T15:21:23.347Z,77.20
2017-10-26T15:23:51.646Z,77.40
2017-10-26T15:26:19.970Z,77.50
2017-10-26T15:28:48.280Z,77.60
2017-10-26T15:31:16.638Z,77.90
2017-10-26T15:33:45.041Z,78.10
2017-10-26T15:36:13.384Z,78.30
2017-10-26T15:38:41.690Z,78.40
2017-10-26T15:41:10.021Z,78.60
2017-10-26T15:43:38.359Z,78.80
2017-10-26T15:46:09.851Z,79.00
2017-10-26T15:48:38.161Z,79.10
2017-10-26T15:51:06.486Z,79.30
2017-10-26T15:53:34.027Z,79.30
2017-10-26T15:56:02.359Z,79.80
2017-10-26T15:58:30.669Z,80.00
2017-10-26T16:00:58.230Z,80.00
2017-10-26T16:03:26.561Z,79.90
2017-10-26T16:05:54.903Z,80.20
2017-10-26T16:08:23.207Z,80.30
2017-10-26T16:10:51.539Z,80.60
2017-10-26T16:13:19.833Z,80.80
2017-10-26T16:15:47.397Z,80.90
2017-10-26T16:18:14.933Z,81.10
2017-10-26T16:20:43.224Z,81.10
2017-10-26T16:23:10.780Z,81.10
2017-10-26T16:25:38.301Z,81.30
2017-10-26T16:28:05.865Z,81.30
2017-10-26T16:30:34.153Z,81.60
2017-10-26T16:33:02.621Z,81.70
2017-10-26T16:35:30.161Z,81.80
2017-10-26T16:37:57.714Z,82.00
2017-10-26T16:40:26.005Z,82.00
2017-10-26T16:42:53.544Z,81.90
2017-10-26T16:45:21.065Z,81.80
2017-10-26T16:47:48.616Z,81.80
2017-10-26T16:50:16.918Z,81.80
2017-10-26T16:52:45.227Z,81.70
2017-10-26T16:55:12.782Z,81.70
2017-10-26T16:57:40.333Z,81.70
2017-10-26T17:00:08.636Z,81.90
2017-10-26T17:02:36.177Z,81.90
2017-10-26T17:05:03.701Z,82.00
2017-10-26T17:07:31.373Z,82.00
2017-10-26T17:09:59.660Z,81.80
2017-10-26T17:12:27.217Z,81.80
2017-10-26T17:14:54.745Z,81.60
2017-10-26T17:17:22.276Z,81.70
2017-10-26T17:19:50.586Z,81.80
2017-10-26T17:22:18.122Z,81.70
2017-10-26T17:24:46.541Z,81.70
2017-10-26T17:27:15.057Z,81.70
2017-10-26T17:29:43.375Z,81.60
2017-10-26T17:32:10.907Z,81.70
2017-10-26T17:34:38.461Z,81.60
2017-10-26T17:37:05.988Z,81.60
2017-10-26T17:39:34.297Z,81.50
2017-10-26T17:42:02.785Z,81.50
2017-10-26T17:44:30.330Z,81.50
2017-10-26T17:46:57.849Z,81.60
2017-10-26T17:49:25.401Z,81.60
2017-10-26T17:51:53.684Z,81.80
2017-10-26T17:54:21.225Z,81.80
2017-10-26T17:56:48.747Z,81.90
2017-10-26T17:59:16.316Z,82.00
2017-10-26T18:01:44.609Z,82.40
2017-10-26T18:04:12.910Z,82.70
2017-10-26T18:06:40.457Z,82.60
2017-10-26T18:09:07.993Z,82.60
2017-10-26T18:11:36.312Z,82.60
2017-10-26T18:14:03.833Z,82.60
2017-10-26T18:16:31.385Z,82.40
2017-10-26T18:18:58.915Z,82.50
2017-10-26T18:21:27.230Z,82.60
2017-10-26T18:23:54.769Z,82.50
2017-10-26T18:26:22.325Z,82.60
2017-10-26T18:28:49.852Z,82.70
2017-10-26T18:31:18.170Z,82.90
2017-10-26T18:33:45.714Z,82.90
2017-10-26T18:36:13.279Z,83.00
2017-10-26T18:38:40.808Z,83.10
2017-10-26T18:41:09.197Z,83.20
2017-10-26T18:43:36.733Z,83.20
2017-10-26T18:46:04.280Z,83.30
2017-10-26T18:48:32.127Z,83.30
2017-10-26T18:51:00.509Z,83.30
2017-10-26T18:53:28.035Z,83.30
2017-10-26T18:55:55.557Z,83.30
2017-10-26T18:58:23.093Z,83.30
2017-10-26T19:00:51.381Z,83.30
2017-10-26T19:03:18.953Z,83.20
2017-10-26T19:05:47.261Z,83.20
2017-10-26T19:08:14.834Z,83.00
2017-10-26T19:10:43.116Z,83.30
2017-10-26T19:13:10.671Z,83.10
2017-10-26T19:15:38.199Z,83.20
2017-10-26T19:18:05.766Z,83.10
2017-10-26T19:20:34.085Z,83.20
2017-10-26T19:23:01.725Z,83.20
2017-10-26T19:25:29.290Z,83.30
2017-10-26T19:27:56.963Z,83.40
2017-10-26T19:30:25.361Z,83.80
2017-10-26T19:32:52.934Z,83.70
2017-10-26T19:35:20.468Z,83.80
2017-10-26T19:37:48.019Z,83.80
2017-10-26T19:40:16.308Z,83.80
2017-10-26T19:42:43.837Z,83.80
2017-10-26T19:45:11.477Z,83.90
2017-10-26T19:47:39.013Z,84.80
2017-10-26T19:50:07.750Z,85.00
2017-10-26T19:52:35.331Z,84.10
2017-10-26T19:55:02.992Z,84.10
2017-10-26T19:57:30.513Z,83.90
2017-10-26T19:59:58.870Z,83.80
2017-10-26T20:02:26.394Z,83.80
2017-10-26T20:04:53.958Z,83.80
2017-10-26T20:07:21.477Z,83.80
2017-10-26T20:09:49.997Z,83.90
2017-10-26T20:12:17.531Z,83.70
2017-10-26T20:14:45.907Z,83.90
2017-10-26T20:17:13.455Z,83.80
2017-10-26T20:19:41.748Z,83.80
2017-10-26T20:22:09.297Z,83.80
2017-10-26T20:24:36.855Z,83.90
2017-10-26T20:27:04.447Z,83.90
2017-10-26T20:29:33.675Z,84.10
2017-10-26T20:32:01.244Z,84.10
2017-10-26T20:34:28.782Z,84.20
2017-10-26T20:36:56.304Z,84.60
2017-10-26T20:39:23.857Z,84.80
2017-10-26T20:41:52.144Z,85.00
2017-10-26T20:44:19.692Z,85.00
2017-10-26T20:46:47.243Z,85.20
2017-10-26T20:49:20.387Z,85.30
2017-10-26T20:51:54.305Z,85.50
2017-10-26T20:54:27.399Z,85.40
2017-10-26T20:57:00.467Z,85.50
2017-10-26T20:59:34.328Z,85.50
2017-10-26T21:02:07.417Z,85.60
2017-10-26T21:04:40.509Z,85.70
2017-10-26T21:07:13.718Z,86.60
2017-10-26T21:09:42.089Z,85.90
2017-10-26T21:12:15.190Z,85.90
2017-10-26T21:14:42.761Z,85.90
2017-10-26T21:17:10.286Z,86.00
2017-10-26T21:19:38.597Z,86.60
2017-10-26T21:22:06.116Z,86.60
2017-10-26T21:24:34.413Z,87.70
2017-10-26T21:27:01.961Z,87.70
2017-10-26T21:29:30.261Z,88.40
2017-10-26T21:31:57.859Z,88.50
2017-10-26T21:34:26.173Z,89.20
2017-10-26T21:36:53.729Z,89.30
2017-10-26T21:39:21.272Z,89.50
2017-10-26T21:41:49.604Z,90.00
2017-10-26T21:44:17.134Z,90.00
2017-10-26T21:46:44.669Z,90.10
2017-10-26T21:49:12.224Z,90.50
2017-10-26T21:51:40.523Z,90.30
2017-10-26T21:54:08.073Z,90.20
2017-10-26T21:56:35.606Z,90.30
2017-10-26T21:59:03.916Z,90.50
2017-10-26T22:01:32.225Z,90.60
2017-10-26T22:03:59.809Z,90.50
2017-10-26T22:06:27.336Z,90.60
2017-10-26T22:08:54.880Z,90.70
2017-10-26T22:11:23.184Z,90.70
2017-10-26T22:13:50.715Z,90.70
2017-10-26T22:16:18.278Z,90.80
2017-10-26T22:18:45.806Z,90.80
2017-10-26T22:21:14.145Z,90.90
2017-10-26T22:23:41.674Z,90.90
2017-10-26T22:26:09.197Z,91.00
2017-10-26T22:28:36.742Z,91.10
2017-10-26T22:31:05.045Z,91.20
2017-10-26T22:33:32.585Z,91.20
2017-10-26T22:36:00.109Z,91.30
2017-10-26T22:38:27.681Z,91.30
2017-10-26T22:40:55.979Z,91.40
2017-10-26T22:43:23.502Z,91.40
2017-10-26T22:45:51.041Z,91.30
2017-10-26T22:48:18.579Z,91.40
2017-10-26T22:50:46.897Z,91.40
2017-10-26T22:53:14.429Z,91.40
2017-10-26T22:55:41.977Z,91.40
2017-10-26T22:58:10.281Z,91.40
2017-10-26T23:00:38.614Z,91.40
2017-10-26T23:03:06.133Z,91.40
2017-10-26T23:05:33.669Z,91.40
2017-10-26T23:08:01.221Z,91.40
2017-10-26T23:10:29.534Z,91.50
2017-10-26T23:12:57.088Z,91.50
2017-10-26T23:15:24.616Z,91.50
2017-10-26T23:17:52.924Z,91.60
2017-10-26T23:20:21.213Z,91.60
2017-10-26T23:22:48.784Z,91.60
2017-10-26T23:25:16.305Z,91.60
2017-10-26T23:27:43.828Z,91.70
2017-10-26T23:30:12.140Z,91.80
2017-10-26T23:32:39.657Z,91.80
2017-10-26T23:35:07.201Z,91.80
2017-10-26T23:37:34.725Z,91.90
2017-10-26T23:40:03.036Z,92.10
2017-10-26T23:42:30.564Z,92.10
2017-10-26T23:44:58.121Z,92.20
2017-10-26T23:47:26.404Z,91.60
2017-10-26T23:49:54.701Z,91.30
2017-10-26T23:52:22.244Z,91.30
2017-10-26T23:54:49.772Z,91.20
2017-10-26T23:57:17.321Z,91.20
2017-10-26T23:59:45.641Z,90.60
